Time;durP1;ratioP1;P1;durP2;ratioP2;P2;SDS_P1;SDS_P2;PMS_P1;PMS_P2;Temp;Humidity;BMP_temperature;BMP_pressure;BME280_temperature;BME280_humidity;BME280_pressure;Samples;Min_cycle;Max_cycle;Signal;HPM_P1;HPM_P2
2023/10/17 00:01:23;;;;;;;6.43;3.67;;;;;;;3.82;78.27;93450.16;5066360;28;20044;-73
2023/10/17 00:03:53;;;;;;;7.60;4.03;;;;;;;3.92;78.06;93470.31;5065721;28;20088;-72
2023/10/17 00:06:22;;;;;;;6.40;4.15;;;;;;;3.90;78.31;93460.34;5064474;28;20044;-73
2023/10/17 00:08:51;;;;;;;4.65;3.60;;;;;;;3.87;78.86;93455.56;5062885;28;20044;-72
2023/10/17 00:11:20;;;;;;;7.32;4.07;;;;;;;3.77;78.22;93432.06;5064275;28;20044;-72
2023/10/17 00:13:59;;;;;;;6.88;3.53;;;;;;;3.80;77.37;93440.16;5065980;28;20053;-72
2023/10/17 00:16:28;;;;;;;4.68;2.85;;;;;;;3.93;78.24;93452.38;5065079;28;20397;-72
2023/10/17 00:18:55;;;;;;;6.43;3.50;;;;;;;3.86;77.97;93453.97;5064318;28;20052;-72
2023/10/17 00:21:25;;;;;;;5.22;3.10;;;;;;;3.85;78.52;93458.25;5061589;28;20566;-73
2023/10/17 00:23:53;;;;;;;4.68;3.55;;;;;;;3.70;78.24;93440.34;5061819;28;20053;-72
2023/10/17 00:26:20;;;;;;;5.20;3.40;;;;;;;3.82;78.99;93455.25;5060362;28;20044;-72
2023/10/17 00:28:48;;;;;;;5.45;3.65;;;;;;;3.82;78.87;93440.00;5062805;28;20131;-72
2023/10/17 00:31:16;;;;;;;6.47;3.75;;;;;;;3.82;78.97;93450.16;5062142;28;20643;-72
2023/10/17 00:33:43;;;;;;;4.97;3.58;;;;;;;3.77;79.32;93442.22;5064674;28;20041;-72
2023/10/17 00:36:14;;;;;;;7.25;3.42;;;;;;;3.76;78.95;93444.00;5064512;28;20055;-72
2023/10/17 00:38:45;;;;;;;5.05;3.28;;;;;;;3.75;78.84;93450.00;5063995;28;20041;-73
2023/10/17 00:41:17;;;;;;;7.43;3.28;;;;;;;3.78;78.73;93446.34;5060153;28;20049;-72
2023/10/17 00:43:44;;;;;;;5.22;2.97;;;;;;;3.78;78.30;93443.81;5064285;28;20040;-72
2023/10/17 00:46:10;;;;;;;5.72;3.38;;;;;;;3.70;78.40;93449.72;5065517;28;20037;-72
2023/10/17 00:48:38;;;;;;;6.88;3.03;;;;;;;3.63;78.42;93444.50;5058741;28;20051;-73
2023/10/17 00:51:08;;;;;;;4.85;3.03;;;;;;;3.58;78.65;93447.53;5062773;28;20045;-72
2023/10/17 00:53:39;;;;;;;5.35;3.30;;;;;;;3.56;79.58;93444.34;5064926;28;20044;-73
2023/10/17 00:56:08;;;;;;;4.85;3.05;;;;;;;3.52;80.22;93448.13;5062365;28;20056;-72
2023/10/17 00:58:35;;;;;;;4.95;3.17;;;;;;;3.51;79.93;93444.00;5063241;28;20043;-72
2023/10/17 01:01:14;;;;;;;4.65;2.88;;;;;;;3.31;79.44;93424.03;5064872;28;20048;-73
2023/10/17 01:03:43;;;;;;;4.97;3.28;;;;;;;3.48;80.04;93440.03;5062688;28;20493;-72
2023/10/17 01:06:23;;;;;;;6.88;3.00;;;;;;;3.42;80.62;93440.69;5063917;28;20052;-73
2023/10/17 01:08:50;;;;;;;4.57;2.72;;;;;;;3.44;80.18;93435.47;5064088;28;20074;-72
2023/10/17 01:11:26;;;;;;;6.30;3.10;;;;;;;3.49;79.34;93438.31;5065633;28;20072;-72
2023/10/17 01:13:53;;;;;;;5.30;2.83;;;;;;;3.38;80.48;93433.56;5059530;28;20509;-73
2023/10/17 01:16:21;;;;;;;6.35;3.03;;;;;;;3.44;79.83;93441.34;5061844;28;20152;-73
2023/10/17 01:18:48;;;;;;;4.60;2.95;;;;;;;3.39;80.53;93452.91;5064739;28;20457;-72
2023/10/17 01:21:17;;;;;;;4.90;2.67;;;;;;;3.21;80.78;93425.94;5062766;28;20044;-72
2023/10/17 01:23:44;;;;;;;6.68;3.45;;;;;;;3.36;80.49;93438.78;5064577;28;20493;-72
2023/10/17 01:26:20;;;;;;;6.68;3.70;;;;;;;3.38;79.96;93438.63;5061826;28;20044;-72
2023/10/17 01:28:48;;;;;;;5.53;4.03;;;;;;;3.37;80.94;93442.91;5062974;28;20041;-73
2023/10/17 01:31:22;;;;;;;7.25;3.92;;;;;;;3.30;80.49;93424.19;5061826;28;20049;-73
2023/10/17 01:33:50;;;;;;;5.60;3.95;;;;;;;3.33;81.40;93450.06;5064190;28;20135;-73
2023/10/17 01:36:19;;;;;;;6.82;4.22;;;;;;;3.29;80.49;93437.84;5064058;28;20059;-73
2023/10/17 01:38:46;;;;;;;6.30;4.05;;;;;;;3.39;79.93;93446.09;5063522;28;20098;-73
2023/10/17 01:41:14;;;;;;;5.53;3.40;;;;;;;3.31;80.63;93449.44;5069907;28;20123;-72
2023/10/17 01:43:41;;;;;;;5.18;3.25;;;;;;;3.28;79.82;93431.19;5067727;28;20052;-73
2023/10/17 01:46:14;;;;;;;4.75;3.28;;;;;;;3.28;79.96;93443.88;5066592;28;20048;-72
2023/10/17 01:48:44;;;;;;;6.22;3.15;;;;;;;3.11;80.03;93428.66;5062432;28;20472;-72
2023/10/17 01:51:13;;;;;;;5.80;2.95;;;;;;;3.16;80.90;93445.94;5067781;28;20049;-73
2023/10/17 01:53:40;;;;;;;4.63;3.10;;;;;;;3.07;80.75;93435.75;5066008;28;20071;-73
2023/10/17 01:56:16;;;;;;;5.57;2.50;;;;;;;3.13;80.62;93439.44;5063963;28;20044;-72
2023/10/17 01:58:50;;;;;;;4.65;2.85;;;;;;;3.11;80.94;93436.25;5065650;28;20059;-72
2023/10/17 02:01:18;;;;;;;5.13;2.83;;;;;;;3.06;81.33;93439.25;5062063;28;20453;-73
2023/10/17 02:03:45;;;;;;;5.20;2.60;;;;;;;3.09;80.80;93440.69;5063825;28;20452;-72
2023/10/17 02:06:16;;;;;;;4.57;2.63;;;;;;;3.01;81.61;93433.84;5061769;28;20076;-72
2023/10/17 02:08:44;;;;;;;5.88;2.90;;;;;;;3.01;81.78;93435.63;5066204;28;20498;-73
2023/10/17 02:11:23;;;;;;;6.28;2.70;;;;;;;3.07;81.19;93425.59;5069372;28;20041;-72
2023/10/17 02:13:52;;;;;;;4.35;2.88;;;;;;;3.11;81.12;93432.91;5065081;28;20500;-73
2023/10/17 02:16:20;;;;;;;4.28;2.85;;;;;;;2.93;81.67;93423.72;5067085;28;20056;-73
2023/10/17 02:18:48;;;;;;;5.53;2.85;;;;;;;3.10;81.50;93441.50;5067581;28;20048;-72
2023/10/17 02:21:15;;;;;;;4.63;3.25;;;;;;;2.90;82.22;93417.22;5067011;28;20598;-72
2023/10/17 02:23:49;;;;;;;5.32;3.42;;;;;;;2.94;82.48;93430.38;5069216;28;20048;-72
2023/10/17 02:26:21;;;;;;;4.82;3.45;;;;;;;2.83;82.54;93402.75;5062118;28;20135;-72
2023/10/17 02:28:51;;;;;;;6.75;3.20;;;;;;;2.91;82.51;93417.97;5064017;28;20044;-72
2023/10/17 02:31:22;;;;;;;4.47;2.83;;;;;;;2.87;82.73;93404.03;5065627;28;20053;-72
2023/10/17 02:33:49;;;;;;;6.20;3.42;;;;;;;2.92;82.47;93417.84;5065169;28;20143;-72
2023/10/17 02:36:17;;;;;;;6.57;3.30;;;;;;;2.89;82.25;93419.91;5065551;28;20044;-72
2023/10/17 02:38:44;;;;;;;6.32;3.28;;;;;;;2.84;81.96;93417.03;5064311;28;20044;-72
2023/10/17 02:41:18;;;;;;;7.10;3.67;;;;;;;2.88;82.45;93421.63;5066339;28;20094;-72
2023/10/17 02:43:45;;;;;;;6.43;4.13;;;;;;;2.87;83.17;93406.59;5068453;28;20072;-72
2023/10/17 02:46:15;;;;;;;5.85;3.75;;;;;;;2.84;83.14;93412.75;5065079;28;20091;-72
2023/10/17 02:48:42;;;;;;;5.32;3.53;;;;;;;2.79;83.08;93403.06;5065878;28;20094;-74
2023/10/17 02:51:31;;;;;;;5.20;3.42;;;;;;;2.91;82.87;93411.19;5065929;28;20057;-75
2023/10/17 02:53:58;;;;;;;6.13;3.40;;;;;;;2.92;82.62;93417.06;5064637;28;20152;-73
2023/10/17 02:56:26;;;;;;;5.90;3.50;;;;;;;2.92;82.71;93415.28;5067346;28;20053;-73
2023/10/17 02:59:04;;;;;;;5.05;2.58;;;;;;;2.90;82.61;93427.34;5067615;28;20068;-73
2023/10/17 03:01:33;;;;;;;4.00;3.30;;;;;;;2.84;83.09;93422.91;5065697;28;20429;-73
2023/10/17 03:04:02;;;;;;;5.45;3.20;;;;;;;2.83;83.30;93420.53;5067021;28;20048;-73
2023/10/17 03:06:29;;;;;;;6.30;3.33;;;;;;;2.81;83.02;93408.00;5066006;28;20044;-73
2023/10/17 03:09:00;;;;;;;4.45;3.05;;;;;;;2.85;83.87;93416.06;5065361;28;20050;-73
2023/10/17 03:11:35;;;;;;;5.93;3.75;;;;;;;2.94;83.08;93410.88;5067002;28;20037;-73
2023/10/17 03:14:12;;;;;;;6.55;4.03;;;;;;;3.00;83.88;93426.44;5063672;28;20067;-73
2023/10/17 03:16:40;;;;;;;5.85;3.88;;;;;;;3.11;82.57;93420.22;5067301;28;20058;-73
2023/10/17 03:19:07;;;;;;;6.57;4.13;;;;;;;3.13;82.90;93419.13;5066707;28;20049;-73
2023/10/17 03:21:34;;;;;;;6.10;3.70;;;;;;;3.14;82.17;93397.84;5062598;28;20048;-73
2023/10/17 03:24:04;;;;;;;5.88;4.43;;;;;;;3.17;82.33;93399.28;5067342;28;20055;-74
2023/10/17 03:26:39;;;;;;;5.97;4.60;;;;;;;3.29;82.01;93418.31;5065623;28;20037;-73
2023/10/17 03:29:18;;;;;;;7.63;4.45;;;;;;;3.26;82.22;93418.66;5066369;28;20047;-73
2023/10/17 03:31:48;;;;;;;13.68;7.43;;;;;;;3.15;83.56;93422.28;5064870;28;20051;-73
2023/10/17 03:34:19;;;;;;;10.35;6.10;;;;;;;3.11;82.93;93420.22;5064119;28;20063;-73
2023/10/17 03:36:49;;;;;;;10.18;6.38;;;;;;;3.10;83.49;93416.88;5065322;28;20045;-73
2023/10/17 03:39:21;;;;;;;10.50;6.53;;;;;;;3.27;82.80;93421.97;5062305;28;20044;-73
2023/10/17 03:41:49;;;;;;;10.45;5.70;;;;;;;3.29;82.50;93420.84;5066541;28;20044;-73
2023/10/17 03:44:22;;;;;;;7.95;5.47;;;;;;;3.27;82.83;93420.22;5064960;28;20048;-73
2023/10/17 03:46:50;;;;;;;10.88;5.85;;;;;;;3.30;82.66;93414.03;5066599;28;20124;-73
2023/10/17 03:49:23;;;;;;;10.55;5.85;;;;;;;3.27;82.43;93411.81;5064383;28;20044;-73
2023/10/17 03:51:52;;;;;;;10.25;5.82;;;;;;;3.23;82.81;93413.09;5065379;28;21034;-73
2023/10/17 03:54:22;;;;;;;12.30;6.22;;;;;;;3.22;82.83;93412.28;5062514;28;20053;-73
2023/10/17 03:56:56;;;;;;;10.70;5.75;;;;;;;3.26;82.78;93421.19;5065764;28;20036;-73
2023/10/17 03:59:31;;;;;;;11.93;5.97;;;;;;;3.19;83.05;93431.19;5063535;28;20044;-73
2023/10/17 04:02:02;;;;;;;11.68;6.13;;;;;;;3.18;83.51;93423.72;5062178;28;20142;-74
2023/10/17 04:04:35;;;;;;;10.63;6.22;;;;;;;3.23;83.34;93421.50;5064614;28;20053;-73
2023/10/17 04:07:06;;;;;;;14.85;7.55;;;;;;;3.30;82.97;93419.13;5061665;28;20446;-73
2023/10/17 04:09:38;;;;;;;15.70;7.70;;;;;;;3.27;83.00;93412.63;5066007;28;20081;-73
2023/10/17 04:12:08;;;;;;;14.20;7.78;;;;;;;3.31;83.11;93418.16;5066281;28;20045;-73
2023/10/17 04:14:50;;;;;;;19.75;8.63;;;;;;;3.30;83.98;93414.03;5064726;28;20052;-73
2023/10/17 04:17:23;;;;;;;15.73;8.60;;;;;;;3.32;83.07;93404.50;5066074;28;20741;-73
2023/10/17 04:19:58;;;;;;;10.23;6.65;;;;;;;3.41;82.65;93425.59;5065857;28;20090;-73
2023/10/17 04:22:29;;;;;;;11.38;5.93;;;;;;;3.41;82.99;93426.41;5066116;28;20052;-73
2023/10/17 04:25:00;;;;;;;12.02;6.35;;;;;;;3.41;83.17;93428.16;5063692;28;20459;-73
2023/10/17 04:27:31;;;;;;;9.43;5.65;;;;;;;3.46;83.43;93418.31;5062041;28;20051;-73
2023/10/17 04:29:59;;;;;;;10.68;5.35;;;;;;;3.42;83.19;93409.44;5064602;28;20044;-73
2023/10/17 04:32:29;;;;;;;8.20;5.63;;;;;;;3.40;83.11;93407.06;5065548;28;20119;-74
2023/10/17 04:34:56;;;;;;;12.70;6.18;;;;;;;3.44;83.85;93407.53;5063683;28;20044;-73
2023/10/17 04:43:41;;;;;;;13.05;6.22;;;;;;;3.24;83.00;93381.69;5061340;28;20051;-73
2023/10/17 04:45:54;;;;;;;10.07;5.47;;;;;;;3.44;83.73;93403.25;5063661;28;20655;-73
2023/10/17 04:48:32;;;;;;;10.05;6.32;;;;;;;3.40;83.62;93403.72;5065135;28;20990;-73
2023/10/17 04:51:05;;;;;;;10.25;5.38;;;;;;;3.39;83.97;93407.22;5062175;28;20090;-73
2023/10/17 04:53:38;;;;;;;13.48;5.53;;;;;;;3.45;83.20;93412.44;5061852;28;20400;-73
2023/10/17 04:56:11;;;;;;;13.57;6.38;;;;;;;3.44;84.48;93408.34;5062501;28;20407;-74
2023/10/17 04:58:47;;;;;;;13.63;6.80;;;;;;;3.43;84.32;93411.78;5062307;28;20408;-73
2023/10/17 05:01:35;;;;;;;14.25;7.45;;;;;;;3.42;84.21;93412.75;5065620;28;20040;-73
2023/10/17 05:04:18;;;;;;;14.18;7.78;;;;;;;3.46;84.42;93411.50;5063280;28;20044;-73
2023/10/17 06:18:27;;;;;;;23.65;10.65;;;;;;;4.97;79.04;93470.22;5073770;28;20106;-72
2023/10/17 06:21:07;;;;;;;29.08;9.25;;;;;;;5.05;79.20;93468.44;5073198;28;20041;-71
2023/10/17 06:32:06;;;;;;;13.27;7.53;;;;;;;5.56;77.27;93479.84;5070425;28;20055;-72
2023/10/17 06:34:33;;;;;;;19.15;8.32;;;;;;;5.52;76.95;93463.34;5073222;28;20569;-72
2023/10/17 06:37:02;;;;;;;16.38;9.63;;;;;;;5.50;77.53;93464.47;5083088;28;20044;-72
2023/10/17 06:39:37;;;;;;;24.27;12.85;;;;;;;5.58;76.80;93465.19;5075401;28;20040;-72
2023/10/17 06:42:14;;;;;;;23.15;12.32;;;;;;;5.64;77.13;93455.28;5072820;28;20479;-72
2023/10/17 06:44:51;;;;;;;20.92;10.98;;;;;;;5.85;76.02;93464.81;5080283;28;20059;-72
2023/10/17 06:47:18;;;;;;;26.58;11.32;;;;;;;5.96;76.24;93463.56;5072886;28;20067;-72
2023/10/17 06:50:16;;;;;;;16.50;9.82;;;;;;;6.15;75.34;93462.28;5069959;28;20127;-72
2023/10/17 06:52:54;;;;;;;16.92;10.20;;;;;;;6.14;74.42;93433.47;5067081;28;21524;-72
2023/10/17 06:55:22;;;;;;;17.88;8.90;;;;;;;6.53;74.60;93463.97;5069662;28;20059;-72
2023/10/17 06:57:51;;;;;;;12.57;6.38;;;;;;;6.52;73.48;93429.19;5070215;28;20474;-72
2023/10/17 07:00:24;;;;;;;13.10;6.35;;;;;;;6.86;73.13;93449.97;5072843;28;20047;-72
2023/10/17 07:02:56;;;;;;;11.65;6.40;;;;;;;7.05;72.32;93457.03;5081520;28;20051;-72
2023/10/17 07:05:24;;;;;;;13.68;6.53;;;;;;;7.26;71.07;93463.16;5077566;28;20527;-72
2023/10/17 07:07:52;;;;;;;16.67;6.82;;;;;;;7.47;69.65;93456.44;5074572;28;20048;-72
2023/10/17 07:10:24;;;;;;;15.77;7.03;;;;;;;7.49;68.26;93447.63;5072188;28;20133;-72
2023/10/17 07:13:32;;;;;;;17.35;7.35;;;;;;;7.74;68.07;93459.22;5085179;28;20079;-73
2023/10/17 07:16:04;;;;;;;14.10;7.28;;;;;;;7.66;68.31;93423.53;5087792;28;20130;-72
2023/10/17 07:18:47;;;;;;;13.70;7.32;;;;;;;8.02;67.54;93451.53;5073229;28;20052;-72
2023/10/17 07:21:17;;;;;;;13.80;6.13;;;;;;;8.11;67.73;93436.81;5067276;28;20536;-72
2023/10/17 07:23:45;;;;;;;14.25;6.20;;;;;;;8.29;67.27;93438.09;5066014;28;20047;-72
2023/10/17 07:26:17;;;;;;;12.57;6.18;;;;;;;8.40;67.50;93434.22;5067219;28;20041;-72
2023/10/17 07:28:48;;;;;;;12.52;5.20;;;;;;;8.54;66.89;93432.53;5066663;28;20053;-72
2023/10/17 07:31:17;;;;;;;9.65;4.90;;;;;;;8.67;66.40;93435.13;5064749;28;20460;-72
2023/10/17 07:33:44;;;;;;;12.45;6.03;;;;;;;8.75;65.77;93441.84;5066731;28;20048;-72
2023/10/17 07:36:15;;;;;;;12.80;5.57;;;;;;;8.90;65.76;93439.16;5067456;28;20057;-72
2023/10/17 07:38:43;;;;;;;13.25;5.63;;;;;;;9.01;66.45;93440.34;5066071;28;20562;-72
2023/10/17 07:41:14;;;;;;;13.27;6.00;;;;;;;9.14;65.63;93444.72;5067192;28;20041;-72
2023/10/17 07:43:44;;;;;;;12.20;5.28;;;;;;;9.29;65.66;93441.16;5070676;28;20051;-72
2023/10/17 07:46:18;;;;;;;14.82;6.18;;;;;;;9.45;65.80;93432.31;5069269;28;20047;-72
2023/10/17 07:48:48;;;;;;;10.18;5.15;;;;;;;9.55;65.52;93434.50;5066489;28;20080;-72
2023/10/17 07:51:16;;;;;;;11.57;6.05;;;;;;;9.70;65.90;93437.66;5069168;28;20049;-73
2023/10/17 07:53:45;;;;;;;14.02;6.15;;;;;;;9.61;66.64;93423.44;5068045;28;20628;-72
2023/10/17 07:56:20;;;;;;;11.18;5.43;;;;;;;9.88;65.86;93426.00;5069817;28;20043;-72
2023/10/17 07:58:56;;;;;;;17.05;8.70;;;;;;;9.63;66.95;93427.38;5064449;28;20159;-72
2023/10/17 08:01:33;;;;;;;12.30;7.50;;;;;;;9.78;66.71;93421.28;5080967;28;20090;-72
2023/10/17 08:04:13;;;;;;;13.20;6.60;;;;;;;9.66;66.40;93430.53;5071824;28;20048;-72
2023/10/17 08:06:40;;;;;;;14.65;9.13;;;;;;;9.88;65.67;93419.09;5085552;28;20058;-72
2023/10/17 08:09:18;;;;;;;18.00;8.02;;;;;;;9.59;67.13;93426.19;5069195;28;20052;-72
2023/10/17 08:11:46;;;;;;;18.15;8.90;;;;;;;9.61;67.88;93420.88;5073502;28;20133;-73
2023/10/17 08:14:16;;;;;;;18.27;9.90;;;;;;;9.86;67.85;93415.16;5064189;28;20084;-73
2023/10/17 08:16:48;;;;;;;19.88;12.30;;;;;;;9.85;67.66;93413.53;5062808;28;20495;-73
2023/10/17 08:19:16;;;;;;;13.52;8.70;;;;;;;9.70;67.89;93421.47;5071081;28;20048;-75
2023/10/17 08:21:59;;;;;;;15.77;9.57;;;;;;;9.88;67.35;93413.16;5063852;28;20098;-75
2023/10/17 08:24:33;;;;;;;17.25;9.05;;;;;;;9.95;66.97;93423.41;5064447;28;20056;-74
2023/10/17 08:27:17;;;;;;;16.65;10.00;;;;;;;9.95;67.46;93416.50;5076993;28;20051;-74
2023/10/17 08:29:45;;;;;;;19.00;9.02;;;;;;;10.02;67.64;93414.72;5066105;28;20397;-74
2023/10/17 08:32:38;;;;;;;12.73;8.93;;;;;;;10.14;67.55;93411.53;5072626;28;20054;-74
2023/10/17 08:35:10;;;;;;;40.53;23.58;;;;;;;10.04;68.42;93409.38;5067382;28;20052;-74
2023/10/17 08:37:43;;;;;;;16.08;10.35;;;;;;;10.21;68.00;93411.50;5066936;28;20055;-74
2023/10/17 08:42:52;;;;;;;9.27;4.75;;;;;;;10.34;67.68;93423.50;5067502;28;20135;-74
2023/10/17 08:45:20;;;;;;;9.95;4.68;;;;;;;10.49;68.05;93418.16;5065495;28;20072;-74
2023/10/17 08:47:50;;;;;;;7.70;4.38;;;;;;;10.60;68.10;93424.44;5071083;28;20048;-74
2023/10/17 08:50:18;;;;;;;9.98;5.38;;;;;;;10.74;67.24;93415.66;5079677;28;20505;-74
2023/10/17 08:52:46;;;;;;;11.52;5.45;;;;;;;10.85;66.50;93426.31;5065615;28;20159;-74
2023/10/17 08:55:15;;;;;;;10.73;5.07;;;;;;;10.95;66.42;93421.50;5067414;28;20059;-74
2023/10/17 08:57:42;;;;;;;9.02;5.70;;;;;;;11.16;66.32;93417.81;5065393;28;20115;-74
2023/10/17 09:00:24;;;;;;;11.80;6.10;;;;;;;11.31;64.31;93409.03;5067064;28;20061;-74
2023/10/17 09:03:01;;;;;;;11.40;6.28;;;;;;;11.25;64.48;93417.56;5064770;28;20053;-74
2023/10/17 09:05:29;;;;;;;10.20;5.97;;;;;;;11.35;64.31;93417.91;5064881;28;20049;-74
2023/10/17 09:08:02;;;;;;;16.13;6.85;;;;;;;11.34;63.63;93404.25;5082120;28;20135;-74
2023/10/17 09:10:36;;;;;;;18.90;6.88;;;;;;;11.53;61.90;93406.09;5078781;28;20044;-73
2023/10/17 09:16:10;;;;;;;26.38;7.55;;;;;;;11.69;62.04;93394.47;5070305;28;20523;-72
2023/10/17 09:18:42;;;;;;;14.68;6.07;;;;;;;11.82;61.47;93396.16;5069603;28;20048;-72
2023/10/17 09:21:13;;;;;;;21.60;7.97;;;;;;;11.86;59.81;93397.31;5074646;28;20062;-72
2023/10/17 09:23:41;;;;;;;18.98;7.07;;;;;;;11.86;60.09;93387.00;5085187;28;20048;-72
2023/10/17 09:26:10;;;;;;;20.35;7.00;;;;;;;11.85;59.94;93385.44;5082167;28;20048;-72
2023/10/17 09:28:37;;;;;;;15.70;6.90;;;;;;;11.71;60.28;93370.09;5067533;28;20087;-71
2023/10/17 09:31:08;;;;;;;24.42;7.00;;;;;;;11.73;60.99;93365.56;5085306;28;20492;-72
2023/10/17 09:33:36;;;;;;;15.38;7.22;;;;;;;11.74;61.14;93381.75;5070977;28;20044;-72
2023/10/17 09:36:05;;;;;;;24.33;9.25;;;;;;;11.79;60.91;93384.50;5070750;28;20056;-72
2023/10/17 09:38:33;;;;;;;24.90;8.25;;;;;;;11.53;60.88;93376.00;5067029;28;20044;-72
2023/10/17 09:41:00;;;;;;;20.95;6.63;;;;;;;11.58;61.38;93362.53;5069289;28;20097;-72
2023/10/17 09:43:28;;;;;;;16.88;6.22;;;;;;;11.69;61.23;93364.41;5066555;28;20041;-72
2023/10/17 09:46:02;;;;;;;17.88;6.55;;;;;;;11.80;60.78;93362.13;5067481;28;20455;-72
2023/10/17 09:48:34;;;;;;;21.52;8.02;;;;;;;11.98;59.83;93364.69;5066003;28;20484;-72
2023/10/17 09:51:02;;;;;;;18.42;6.55;;;;;;;11.92;59.51;93362.19;5071946;28;20068;-72
2023/10/17 09:53:34;;;;;;;18.25;6.57;;;;;;;11.87;59.37;93353.34;5066575;28;20044;-72
2023/10/17 09:56:06;;;;;;;15.82;6.57;;;;;;;11.90;60.24;93363.19;5064475;28;20539;-72
2023/10/17 09:58:37;;;;;;;16.10;6.32;;;;;;;11.57;61.12;93355.81;5061748;28;20633;-72
2023/10/17 10:01:13;;;;;;;23.52;8.02;;;;;;;11.71;61.15;93354.66;5078961;28;20054;-72
2023/10/17 10:03:41;;;;;;;18.73;7.30;;;;;;;11.77;60.44;93350.47;5081371;28;20040;-72
2023/10/17 10:06:30;;;;;;;20.38;9.25;;;;;;;11.42;62.07;93349.19;5070303;28;20053;-72
2023/10/17 10:09:26;;;;;;;17.95;6.07;;;;;;;11.40;62.26;93348.63;5075184;28;20044;-72
2023/10/17 10:11:58;;;;;;;11.23;4.72;;;;;;;11.49;61.97;93351.72;5069247;28;20051;-72
2023/10/17 10:14:50;;;;;;;14.13;5.60;;;;;;;11.56;61.48;93347.28;5075992;28;20520;-72
2023/10/17 10:17:17;;;;;;;14.57;4.65;;;;;;;11.45;61.36;93335.13;5053237;28;20045;-72
2023/10/17 10:20:01;;;;;;;18.13;6.68;;;;;;;11.77;60.74;93351.25;5070778;28;20123;-72
2023/10/17 10:22:59;;;;;;;43.47;22.40;;;;;;;11.90;60.95;93346.97;5068939;28;20420;-72
2023/10/17 10:25:27;;;;;;;144.77;62.60;;;;;;;11.93;59.93;93345.75;5013468;28;20180;-72
2023/10/17 10:28:26;;;;;;;55.75;22.17;;;;;;;12.05;60.07;93335.56;5068538;28;20049;-73
2023/10/17 10:30:52;;;;;;;14.52;6.60;;;;;;;12.09;60.05;93340.03;5066515;28;20048;-72
2023/10/17 10:33:21;;;;;;;14.82;5.50;;;;;;;12.11;59.86;93338.06;5063857;28;20052;-72
2023/10/17 10:35:48;;;;;;;18.60;8.07;;;;;;;12.23;60.02;93338.09;5072008;28;20048;-72
2023/10/17 10:38:15;;;;;;;12.57;6.28;;;;;;;12.31;60.16;93333.69;5074607;28;20040;-72
2023/10/17 10:40:43;;;;;;;18.73;7.10;;;;;;;12.34;60.64;93339.19;5064282;28;20048;-72
2023/10/17 10:43:11;;;;;;;11.93;5.30;;;;;;;12.38;59.70;93347.25;5070511;28;20485;-72
2023/10/17 10:45:47;;;;;;;14.02;5.65;;;;;;;12.40;60.35;93346.03;5070080;28;20044;-72
2023/10/17 10:48:15;;;;;;;16.77;5.65;;;;;;;12.37;60.50;93346.47;5069021;28;20053;-72
2023/10/17 10:50:44;;;;;;;14.27;5.10;;;;;;;12.45;60.50;93340.22;5068746;28;20055;-72
2023/10/17 10:53:24;;;;;;;17.25;6.13;;;;;;;12.51;60.85;93336.00;5071383;28;20044;-72
2023/10/17 10:55:56;;;;;;;14.48;4.63;;;;;;;12.45;60.45;93337.66;5076702;28;20052;-72
2023/10/17 10:58:28;;;;;;;13.70;5.75;;;;;;;12.51;60.71;93323.13;5082595;28;20052;-72
2023/10/17 11:00:58;;;;;;;10.98;5.10;;;;;;;12.37;60.33;93307.81;5070224;28;20416;-72
2023/10/17 11:03:25;;;;;;;10.85;4.47;;;;;;;12.49;60.89;93304.53;5069519;28;20049;-72
2023/10/17 11:05:53;;;;;;;12.82;5.93;;;;;;;12.55;60.47;93281.22;5064268;28;20052;-72
2023/10/17 11:08:21;;;;;;;13.93;5.18;;;;;;;12.82;59.92;93303.25;5070826;28;20044;-72
2023/10/17 11:10:48;;;;;;;9.05;3.85;;;;;;;12.89;59.11;93296.22;5070180;28;20048;-73
2023/10/17 11:13:16;;;;;;;10.90;4.43;;;;;;;13.17;59.58;93304.31;5069331;28;20514;-72
2023/10/17 11:15:44;;;;;;;11.98;5.03;;;;;;;13.18;58.65;93283.47;5062500;28;20056;-72
2023/10/17 11:18:12;;;;;;;7.60;3.88;;;;;;;13.30;58.45;93291.22;5078956;28;20097;-73
2023/10/17 11:20:41;;;;;;;10.07;4.43;;;;;;;13.29;57.76;93281.91;5087591;28;20048;-72
2023/10/17 11:23:11;;;;;;;10.98;3.65;;;;;;;13.46;58.68;93279.47;5071600;28;20079;-72
2023/10/17 11:25:40;;;;;;;9.35;4.45;;;;;;;13.61;58.16;93271.25;5080839;28;20112;-73
2023/10/17 11:28:08;;;;;;;10.27;4.30;;;;;;;13.67;56.94;93272.16;5085924;28;20051;-72
2023/10/17 11:30:41;;;;;;;11.73;4.57;;;;;;;13.79;57.70;93266.19;5075455;28;20045;-72
2023/10/17 11:33:11;;;;;;;12.82;4.82;;;;;;;13.83;57.23;93262.91;5076210;28;20141;-72
2023/10/17 11:35:39;;;;;;;7.53;4.28;;;;;;;13.97;56.89;93257.47;5068446;28;20117;-72
2023/10/17 11:38:07;;;;;;;14.90;4.53;;;;;;;14.03;56.29;93246.25;5065911;28;20049;-72
2023/10/17 11:40:40;;;;;;;9.88;4.57;;;;;;;13.84;56.76;93237.88;5074021;28;20434;-72
2023/10/17 11:43:18;;;;;;;11.77;5.75;;;;;;;13.87;57.15;93242.59;5086269;28;20056;-72
2023/10/17 11:45:46;;;;;;;10.77;5.30;;;;;;;13.85;56.42;93245.38;5087566;28;20043;-72
2023/10/17 11:48:30;;;;;;;13.00;4.25;;;;;;;13.76;56.80;93244.19;5072126;28;20074;-72
2023/10/17 11:51:12;;;;;;;9.45;4.70;;;;;;;13.78;57.36;93241.38;5066717;28;20420;-72
2023/10/17 11:54:03;;;;;;;14.77;4.72;;;;;;;13.75;58.19;93222.75;5068756;28;20052;-72
2023/10/17 11:56:30;;;;;;;10.65;4.43;;;;;;;13.94;57.23;93238.09;5066992;28;20048;-72
2023/10/17 11:58:57;;;;;;;14.20;3.92;;;;;;;14.00;57.20;93232.00;5075752;28;20067;-72
2023/10/17 12:01:26;;;;;;;38.38;18.48;;;;;;;13.79;56.64;93217.91;5069746;28;20056;-72
2023/10/17 12:03:56;;;;;;;14.70;7.07;;;;;;;13.97;56.94;93236.81;5064784;28;20498;-72
2023/10/17 12:06:26;;;;;;;5.45;2.95;;;;;;;13.82;57.55;93238.13;5074530;28;20045;-72
2023/10/17 12:08:53;;;;;;;5.03;2.92;;;;;;;13.49;58.38;93229.19;5073383;28;21197;-72
2023/10/17 12:11:21;;;;;;;6.10;2.45;;;;;;;13.45;58.54;93239.16;5062201;28;20048;-72
2023/10/17 12:13:48;;;;;;;4.40;3.00;;;;;;;13.43;58.89;93246.31;5068471;28;20040;-72
2023/10/17 12:16:17;;;;;;;12.48;3.63;;;;;;;13.48;59.05;93230.97;5086492;28;20583;-72
2023/10/17 12:18:45;;;;;;;5.50;2.50;;;;;;;13.32;59.24;93235.03;5086328;28;20121;-72
2023/10/17 12:21:14;;;;;;;4.20;2.15;;;;;;;13.30;59.76;93237.06;5072939;28;20126;-72
2023/10/17 12:23:41;;;;;;;6.18;2.20;;;;;;;13.13;60.04;93230.97;5065283;28;20052;-72
2023/10/17 12:26:13;;;;;;;4.45;2.72;;;;;;;12.93;60.35;93198.59;5078383;28;20055;-72
2023/10/17 12:28:42;;;;;;;3.95;2.35;;;;;;;13.22;60.66;93232.22;5074803;28;20076;-73
2023/10/17 12:31:09;;;;;;;5.40;2.90;;;;;;;13.28;60.70;93227.97;5064667;28;20484;-72
2023/10/17 12:33:36;;;;;;;6.63;3.40;;;;;;;13.33;60.95;93231.44;5067590;28;20316;-72
2023/10/17 12:36:05;;;;;;;6.75;3.35;;;;;;;13.12;60.62;93222.47;5072613;28;20158;-72
2023/10/17 12:38:34;;;;;;;6.80;3.15;;;;;;;13.20;60.83;93227.28;5072146;28;20048;-72
2023/10/17 12:41:03;;;;;;;7.25;3.00;;;;;;;13.20;61.21;93237.59;5072864;28;20054;-72
2023/10/17 12:43:31;;;;;;;10.70;3.40;;;;;;;13.23;61.28;93231.19;5073323;28;20052;-72
2023/10/17 12:45:58;;;;;;;7.18;2.80;;;;;;;13.07;61.73;93217.19;5085886;28;20048;-72
2023/10/17 12:48:24;;;;;;;6.93;2.78;;;;;;;13.04;61.61;93233.09;5075349;28;20401;-72
2023/10/17 12:50:52;;;;;;;6.65;3.00;;;;;;;13.03;61.68;93234.13;5060736;28;20063;-72
2023/10/17 12:53:20;;;;;;;5.60;2.83;;;;;;;13.03;61.47;93226.38;5078502;28;20074;-72
2023/10/17 12:55:47;;;;;;;6.75;3.40;;;;;;;13.06;62.19;93231.09;5076405;28;20048;-72
2023/10/17 12:58:18;;;;;;;6.45;3.53;;;;;;;13.18;62.34;93223.34;5071773;28;20075;-72
2023/10/17 13:00:47;;;;;;;9.30;4.60;;;;;;;13.23;61.57;93229.41;5064644;28;20487;-72
2023/10/17 13:03:14;;;;;;;6.50;2.97;;;;;;;13.08;62.23;93214.41;5068785;28;20048;-72
2023/10/17 13:05:41;;;;;;;6.07;3.53;;;;;;;13.16;62.17;93218.44;5067390;28;20139;-72
2023/10/17 13:08:07;;;;;;;7.13;3.17;;;;;;;13.06;62.07;93215.63;5067698;28;20045;-72
2023/10/17 13:10:36;;;;;;;7.68;3.17;;;;;;;13.04;62.12;93199.59;5068127;28;20504;-72
2023/10/17 13:13:03;;;;;;;6.43;3.03;;;;;;;13.06;61.46;93210.47;5069340;28;20558;-72
2023/10/17 13:15:30;;;;;;;5.15;2.80;;;;;;;13.09;61.88;93210.81;5066755;28;20064;-72
2023/10/17 13:18:00;;;;;;;5.03;2.65;;;;;;;12.85;62.99;93204.88;5065381;28;20048;-72
2023/10/17 13:20:29;;;;;;;4.72;2.80;;;;;;;12.64;63.28;93204.38;5068815;28;20412;-72
2023/10/17 13:22:59;;;;;;;7.38;4.35;;;;;;;12.70;63.51;93208.66;5085571;28;20048;-71
2023/10/17 13:25:26;;;;;;;9.82;5.57;;;;;;;12.76;63.87;93208.78;5085438;28;20477;-73